Campsall, United Kingdom
Current Conditions -  °F | °C
As of 6:20 AM on Wednesday 28 Jan 2015 (Local Time) from EGCN Reporting Station
Scattered Clouds Scattered Clouds  
Wind Chill: 38°   Ceiling: Unl
Heat Index: 46°   Visibility: 6mi
Dew Point: 43°   Wind: 24mph
Humidity: 87%   Direction: 190°S
Pressure: 29.5"   Gusts: NA
Location:  53.62°N, 1.18°W
Report Text: EGCN 280620Z 19021KT 9999 SCT016 08/06 Q0999
Loading
Personal Weather Stations






























Interactive Weather Map New forecast layout! Learn more

10-Day Weather Forecast

Advertisements
Track Severe Weather on mobile